Time;durP1;ratioP1;P1;durP2;ratioP2;P2;SDS_P1;SDS_P2;PMS_P1;PMS_P2;Temp;Humidity;BMP_temperature;BMP_pressure;BME280_temperature;BME280_humidity;BME280_pressure;Samples;Min_cycle;Max_cycle;Signal;HPM_P1;HPM_P2
2022/01/07 00:00:00;;;;;;;;;;;;;;;;;;2114845;28;19920;-55
2022/01/07 00:01:02;;;;;;;;;;;;;;;;;;2113656;28;19927;-52
2022/01/07 00:02:06;;;;;;;;;;;;;;;;;;2103844;28;20021;-53
2022/01/07 00:03:07;;;;;;;;;;;;;;;;;;2106494;28;19924;-55
2022/01/07 00:04:08;;;;;;;;;;;;;;;;;;2104160;28;19920;-55
2022/01/07 00:05:09;;;;;;;;;;;;;;;;;;2111885;28;19926;-55
2022/01/07 00:06:09;;;;;;;;;;;;;;;;;;2114918;28;20308;-53
2022/01/07 00:07:10;;;;;;;;;;;;;;;;;;2110938;28;19923;-55
2022/01/07 00:08:11;;;;;;;;;;;;;;;;;;2098845;28;19920;-55
2022/01/07 00:09:12;;;;;;;;;;;;;;;;;;2098162;28;19943;-53
2022/01/07 00:10:12;;;;;;;;;;;;;;;;;;2104444;28;20301;-55
2022/01/07 00:11:13;;;;;;;;;;;;;;;;;;2114966;28;20300;-46
2022/01/07 00:12:17;;;;;;;;;;;;;;;;;;2110510;28;19964;-47
2022/01/07 00:13:18;;;;;;;;;;;;;;;;;;2105754;28;19927;-49
2022/01/07 00:14:19;;;;;;;;;;;;;;;;;;2106160;28;19920;-47
2022/01/07 00:15:20;;;;;;;;;;;;;;;;;;2105630;28;19964;-47
2022/01/07 00:16:21;;;;;;;;;;;;;;;;;;2110579;28;19945;-46
2022/01/07 00:17:22;;;;;;;;;;;;;;;;;;2114810;28;19920;-47
2022/01/07 00:18:23;;;;;;;;;;;;;;;;;;2110000;28;19920;-47
2022/01/07 00:19:23;;;;;;;;;;;;;;;;;;2113683;28;20295;-48
2022/01/07 00:20:24;;;;;;;;;;;;;;;;;;2114706;28;19920;-48
2022/01/07 00:21:25;;;;;;;;;;;;;;;;;;2107949;28;20262;-47
2022/01/07 00:22:26;;;;;;;;;;;;;;;;;;2106226;28;19942;-47
2022/01/07 00:23:27;;;;;;;;;;;;;;;;;;2106423;28;19943;-47
2022/01/07 00:24:28;;;;;;;;;;;;;;;;;;2107677;28;19920;-46
2022/01/07 00:25:29;;;;;;;;;;;;;;;;;;2114807;28;19966;-46
2022/01/07 00:26:29;;;;;;;;;;;;;;;;;;2113866;28;19920;-46
2022/01/07 00:27:30;;;;;;;;;;;;;;;;;;2105575;28;20246;-46
2022/01/07 00:28:31;;;;;;;;;;;;;;;;;;2106412;28;19932;-46
2022/01/07 00:29:32;;;;;;;;;;;;;;;;;;2104323;28;19963;-46
2022/01/07 00:30:33;;;;;;;;;;;;;;;;;;2110746;28;19926;-46
2022/01/07 00:31:34;;;;;;;;;;;;;;;;;;2114647;28;20280;-46
2022/01/07 00:32:35;;;;;;;;;;;;;;;;;;2110473;28;19920;-47
2022/01/07 00:33:35;;;;;;;;;;;;;;;;;;2105482;28;20365;-46
2022/01/07 00:34:36;;;;;;;;;;;;;;;;;;2106475;28;19946;-47
2022/01/07 00:35:37;;;;;;;;;;;;;;;;;;2103968;28;20281;-48
2022/01/07 00:36:38;;;;;;;;;;;;;;;;;;2106390;28;19974;-48
2022/01/07 00:37:39;;;;;;;;;;;;;;;;;;2106307;28;19973;-46
2022/01/07 00:38:40;;;;;;;;;;;;;;;;;;2102105;28;19927;-46
2022/01/07 00:39:40;;;;;;;;;;;;;;;;;;2097992;28;19924;-46
2022/01/07 00:40:42;;;;;;;;;;;;;;;;;;2104553;28;19926;-46
2022/01/07 00:41:43;;;;;;;;;;;;;;;;;;2102062;28;20427;-47
2022/01/07 00:42:45;;;;;;;;;;;;;;;;;;2097861;28;20435;-47
2022/01/07 00:43:48;;;;;;;;;;;;;;;;;;2100932;28;20440;-47
2022/01/07 00:44:49;;;;;;;;;;;;;;;;;;2104642;28;20293;-48
2022/01/07 00:45:49;;;;;;;;;;;;;;;;;;2106343;28;19920;-49
2022/01/07 00:46:50;;;;;;;;;;;;;;;;;;2105036;28;19964;-47
2022/01/07 00:47:51;;;;;;;;;;;;;;;;;;2106150;28;19927;-48
2022/01/07 00:48:52;;;;;;;;;;;;;;;;;;2106157;28;19920;-47
2022/01/07 00:49:53;;;;;;;;;;;;;;;;;;2104835;28;19924;-47
2022/01/07 00:50:53;;;;;;;;;;;;;;;;;;2106285;28;19930;-46
2022/01/07 00:51:54;;;;;;;;;;;;;;;;;;2106102;28;19919;-47
2022/01/07 00:52:55;;;;;;;;;;;;;;;;;;2105849;28;19950;-46
2022/01/07 00:53:56;;;;;;;;;;;;;;;;;;2097763;28;19950;-50
2022/01/07 00:54:57;;;;;;;;;;;;;;;;;;2099033;28;19921;-46
2022/01/07 00:55:58;;;;;;;;;;;;;;;;;;2106765;28;20228;-46
2022/01/07 00:56:58;;;;;;;;;;;;;;;;;;2106118;28;20450;-46
2022/01/07 00:57:59;;;;;;;;;;;;;;;;;;2104011;28;19924;-47
2022/01/07 00:59:00;;;;;;;;;;;;;;;;;;2100889;28;19925;-48
2022/01/07 01:00:01;;;;;;;;;;;;;;;;;;2099016;28;20324;-46
2022/01/07 01:01:04;;;;;;;;;;;;;;;;;;2104404;28;20097;-46
2022/01/07 01:02:05;;;;;;;;;;;;;;;;;;2107478;28;19944;-46
2022/01/07 01:03:15;;;;;;;;;;;;;;;;;;2107742;28;19920;-45
2022/01/07 01:04:16;;;;;;;;;;;;;;;;;;2103000;28;19920;-46
2022/01/07 01:05:17;;;;;;;;;;;;;;;;;;2099104;28;19927;-46
2022/01/07 01:06:17;;;;;;;;;;;;;;;;;;2098818;28;20354;-46
2022/01/07 01:07:18;;;;;;;;;;;;;;;;;;2102927;28;19920;-48
2022/01/07 01:08:19;;;;;;;;;;;;;;;;;;2099225;28;19927;-47
2022/01/07 01:09:20;;;;;;;;;;;;;;;;;;2102851;28;20007;-47
2022/01/07 01:10:21;;;;;;;;;;;;;;;;;;2105879;28;19927;-47
2022/01/07 01:11:22;;;;;;;;;;;;;;;;;;2107641;28;19952;-47
2022/01/07 01:12:22;;;;;;;;;;;;;;;;;;2104120;28;19974;-47
2022/01/07 01:13:23;;;;;;;;;;;;;;;;;;2107067;28;19924;-46
2022/01/07 01:14:24;;;;;;;;;;;;;;;;;;2107624;28;20094;-46
2022/01/07 01:15:25;;;;;;;;;;;;;;;;;;2104051;28;20369;-47
2022/01/07 01:16:26;;;;;;;;;;;;;;;;;;2099119;28;19960;-46
2022/01/07 01:17:27;;;;;;;;;;;;;;;;;;2098794;28;20385;-46
2022/01/07 01:18:27;;;;;;;;;;;;;;;;;;2104602;28;20003;-49
2022/01/07 01:19:28;;;;;;;;;;;;;;;;;;2107702;28;20308;-46
2022/01/07 01:20:31;;;;;;;;;;;;;;;;;;2105523;28;19927;-46
2022/01/07 01:21:32;;;;;;;;;;;;;;;;;;2111881;28;20015;-47
2022/01/07 01:22:33;;;;;;;;;;;;;;;;;;2115990;28;19930;-46
2022/01/07 01:23:34;;;;;;;;;;;;;;;;;;2112394;28;19927;-47
2022/01/07 01:24:34;;;;;;;;;;;;;;;;;;2101440;28;19938;-47
2022/01/07 01:25:35;;;;;;;;;;;;;;;;;;2098936;28;19920;-47
2022/01/07 01:26:36;;;;;;;;;;;;;;;;;;2103669;28;19926;-47
2022/01/07 01:27:37;;;;;;;;;;;;;;;;;;2107390;28;19927;-48
2022/01/07 01:28:38;;;;;;;;;;;;;;;;;;2107549;28;20401;-47
2022/01/07 01:29:39;;;;;;;;;;;;;;;;;;2106260;28;19967;-47
2022/01/07 01:30:40;;;;;;;;;;;;;;;;;;2107528;28;19974;-49
2022/01/07 01:31:41;;;;;;;;;;;;;;;;;;2107069;28;20443;-46
2022/01/07 01:32:44;;;;;;;;;;;;;;;;;;2107800;28;19924;-47
2022/01/07 01:33:45;;;;;;;;;;;;;;;;;;2107413;28;19919;-46
2022/01/07 01:34:46;;;;;;;;;;;;;;;;;;2106719;28;19981;-47
2022/01/07 01:35:47;;;;;;;;;;;;;;;;;;2112490;28;20015;-46
2022/01/07 01:36:47;;;;;;;;;;;;;;;;;;2115717;28;20161;-51
2022/01/07 01:37:48;;;;;;;;;;;;;;;;;;2108949;28;19959;-48
2022/01/07 01:38:49;;;;;;;;;;;;;;;;;;2100071;28;19920;-46
2022/01/07 01:39:50;;;;;;;;;;;;;;;;;;2099122;28;19920;-48
2022/01/07 01:40:51;;;;;;;;;;;;;;;;;;2105715;28;20311;-47
2022/01/07 01:41:51;;;;;;;;;;;;;;;;;;2115661;28;20301;-48
2022/01/07 01:42:52;;;;;;;;;;;;;;;;;;2115913;28;19920;-46
2022/01/07 01:43:53;;;;;;;;;;;;;;;;;;2103043;28;19924;-46
2022/01/07 01:44:54;;;;;;;;;;;;;;;;;;2098978;28;19921;-46
2022/01/07 01:45:55;;;;;;;;;;;;;;;;;;2098520;28;19927;-49
2022/01/07 01:46:56;;;;;;;;;;;;;;;;;;2102730;28;19966;-47
2022/01/07 01:47:57;;;;;;;;;;;;;;;;;;2098876;28;20373;-46
2022/01/07 01:48:58;;;;;;;;;;;;;;;;;;2101236;28;19974;-46
2022/01/07 01:49:58;;;;;;;;;;;;;;;;;;2113844;28;19926;-47
2022/01/07 01:50:59;;;;;;;;;;;;;;;;;;2115689;28;20279;-47
2022/01/07 01:52:00;;;;;;;;;;;;;;;;;;2109700;28;19920;-47
2022/01/07 01:53:01;;;;;;;;;;;;;;;;;;2099920;28;19920;-47
2022/01/07 01:54:02;;;;;;;;;;;;;;;;;;2098941;28;20388;-47
2022/01/07 01:55:02;;;;;;;;;;;;;;;;;;2105380;28;20284;-46
2022/01/07 01:56:03;;;;;;;;;;;;;;;;;;2107266;28;19924;-49
2022/01/07 01:57:04;;;;;;;;;;;;;;;;;;2107183;28;19927;-46
2022/01/07 01:58:05;;;;;;;;;;;;;;;;;;2104406;28;20137;-47
2022/01/07 01:59:06;;;;;;;;;;;;;;;;;;2107176;28;20019;-48
2022/01/07 02:00:06;;;;;;;;;;;;;;;;;;2106717;28;19926;-48
2022/01/07 02:01:07;;;;;;;;;;;;;;;;;;2106579;28;19920;-46
2022/01/07 02:02:08;;;;;;;;;;;;;;;;;;2107178;28;20285;-46
2022/01/07 02:03:09;;;;;;;;;;;;;;;;;;2105058;28;20056;-47
2022/01/07 02:04:10;;;;;;;;;;;;;;;;;;2101171;28;19973;-49
2022/01/07 02:05:11;;;;;;;;;;;;;;;;;;2098766;28;19927;-48
2022/01/07 02:06:11;;;;;;;;;;;;;;;;;;2103043;28;20366;-47
2022/01/07 02:07:13;;;;;;;;;;;;;;;;;;2107283;28;20388;-46
2022/01/07 02:08:14;;;;;;;;;;;;;;;;;;2106192;28;20014;-49
2022/01/07 02:09:14;;;;;;;;;;;;;;;;;;2102398;28;19921;-47
2022/01/07 02:10:15;;;;;;;;;;;;;;;;;;2098609;28;19920;-46
2022/01/07 02:11:16;;;;;;;;;;;;;;;;;;2099044;28;19973;-48
2022/01/07 02:12:17;;;;;;;;;;;;;;;;;;2105504;28;19927;-48
2022/01/07 02:13:18;;;;;;;;;;;;;;;;;;2107124;28;19927;-49
2022/01/07 02:14:18;;;;;;;;;;;;;;;;;;2104824;28;19973;-47
2022/01/07 02:15:19;;;;;;;;;;;;;;;;;;2100450;28;19943;-47
2022/01/07 02:16:20;;;;;;;;;;;;;;;;;;2098704;28;20287;-47
2022/01/07 02:17:21;;;;;;;;;;;;;;;;;;2104427;28;19927;-48
2022/01/07 02:18:22;;;;;;;;;;;;;;;;;;2115346;28;20295;-47
2022/01/07 02:19:22;;;;;;;;;;;;;;;;;;2115445;28;19919;-48
2022/01/07 02:20:25;;;;;;;;;;;;;;;;;;2107044;28;19931;-46
2022/01/07 02:21:26;;;;;;;;;;;;;;;;;;2115552;28;20014;-47
2022/01/07 02:22:27;;;;;;;;;;;;;;;;;;2114245;28;19919;-50
2022/01/07 02:23:27;;;;;;;;;;;;;;;;;;2110016;28;19919;-47
2022/01/07 02:24:28;;;;;;;;;;;;;;;;;;2115557;28;20318;-46
2022/01/07 02:25:29;;;;;;;;;;;;;;;;;;2113221;28;19920;-46
2022/01/07 02:26:30;;;;;;;;;;;;;;;;;;2103324;28;19943;-46
2022/01/07 02:27:31;;;;;;;;;;;;;;;;;;2098788;28;20006;-46
2022/01/07 02:28:31;;;;;;;;;;;;;;;;;;2102449;28;19926;-46
2022/01/07 02:29:32;;;;;;;;;;;;;;;;;;2106516;28;19920;-48
2022/01/07 02:30:33;;;;;;;;;;;;;;;;;;2107028;28;19980;-47
2022/01/07 02:31:34;;;;;;;;;;;;;;;;;;2104873;28;20365;-47
2022/01/07 02:32:35;;;;;;;;;;;;;;;;;;2115489;28;19965;-46
2022/01/07 02:33:35;;;;;;;;;;;;;;;;;;2115499;28;19919;-46
2022/01/07 02:34:36;;;;;;;;;;;;;;;;;;2102890;28;19920;-47
2022/01/07 02:35:38;;;;;;;;;;;;;;;;;;2098732;28;19969;-46
2022/01/07 02:36:39;;;;;;;;;;;;;;;;;;2099525;28;19973;-47
2022/01/07 02:37:40;;;;;;;;;;;;;;;;;;2102298;28;20382;-47
2022/01/07 02:38:41;;;;;;;;;;;;;;;;;;2098740;28;19958;-46
2022/01/07 02:39:42;;;;;;;;;;;;;;;;;;2099500;28;20049;-47
2022/01/07 02:40:43;;;;;;;;;;;;;;;;;;2100934;28;20312;-47
2022/01/07 02:41:43;;;;;;;;;;;;;;;;;;2098460;28;19935;-46
2022/01/07 02:42:44;;;;;;;;;;;;;;;;;;2102428;28;19927;-46
2022/01/07 02:43:45;;;;;;;;;;;;;;;;;;2106181;28;20016;-46
2022/01/07 02:44:46;;;;;;;;;;;;;;;;;;2106839;28;19927;-47
2022/01/07 02:45:47;;;;;;;;;;;;;;;;;;2105035;28;19920;-46
2022/01/07 02:46:48;;;;;;;;;;;;;;;;;;2115324;28;19923;-46
2022/01/07 02:47:54;;;;;;;;;;;;;;;;;;2115360;28;19926;-46
2022/01/07 02:48:57;;;;;;;;;;;;;;;;;;2105421;28;20003;-46
2022/01/07 02:50:04;;;;;;;;;;;;;;;;;;2107055;28;20025;-46
2022/01/07 02:51:05;;;;;;;;;;;;;;;;;;2105945;28;19986;-47
2022/01/07 02:52:05;;;;;;;;;;;;;;;;;;2113687;28;19927;-46
2022/01/07 02:53:07;;;;;;;;;;;;;;;;;;2115365;28;20353;-46
2022/01/07 02:54:08;;;;;;;;;;;;;;;;;;2108891;28;20400;-46
2022/01/07 02:55:08;;;;;;;;;;;;;;;;;;2098961;28;19920;-46
2022/01/07 02:56:11;;;;;;;;;;;;;;;;;;2098446;28;20566;-46
2022/01/07 02:57:12;;;;;;;;;;;;;;;;;;2103965;28;20441;-46
2022/01/07 02:58:12;;;;;;;;;;;;;;;;;;2098573;28;19927;-47
2022/01/07 02:59:13;;;;;;;;;;;;;;;;;;2098515;28;20344;-46
2022/01/07 03:00:14;;;;;;;;;;;;;;;;;;2107140;28;19923;-46
2022/01/07 03:01:15;;;;;;;;;;;;;;;;;;2106906;28;19920;-46
2022/01/07 03:02:16;;;;;;;;;;;;;;;;;;2104777;28;20288;-49
2022/01/07 03:03:17;;;;;;;;;;;;;;;;;;2112031;28;19919;-46
2022/01/07 03:04:18;;;;;;;;;;;;;;;;;;2115226;28;19920;-48
2022/01/07 03:05:18;;;;;;;;;;;;;;;;;;2110554;28;19920;-47
2022/01/07 03:06:20;;;;;;;;;;;;;;;;;;2100707;28;19920;-47
2022/01/07 03:07:21;;;;;;;;;;;;;;;;;;2098428;28;20445;-47
2022/01/07 03:08:22;;;;;;;;;;;;;;;;;;2102218;28;19920;-47
2022/01/07 03:09:23;;;;;;;;;;;;;;;;;;2098576;28;20374;-52
2022/01/07 03:10:25;;;;;;;;;;;;;;;;;;2098427;28;19925;-51
2022/01/07 03:11:26;;;;;;;;;;;;;;;;;;2105586;28;20007;-51
2022/01/07 03:12:27;;;;;;;;;;;;;;;;;;2115168;28;20331;-51
2022/01/07 03:13:28;;;;;;;;;;;;;;;;;;2112584;28;19930;-51
2022/01/07 03:14:29;;;;;;;;;;;;;;;;;;2109555;28;19920;-50
2022/01/07 03:15:29;;;;;;;;;;;;;;;;;;2115444;28;19919;-50
2022/01/07 03:16:30;;;;;;;;;;;;;;;;;;2112713;28;20349;-50
2022/01/07 03:17:31;;;;;;;;;;;;;;;;;;2105268;28;20368;-51
2022/01/07 03:18:32;;;;;;;;;;;;;;;;;;2106729;28;19924;-50
2022/01/07 03:19:33;;;;;;;;;;;;;;;;;;2104979;28;20028;-50
2022/01/07 03:20:38;;;;;;;;;;;;;;;;;;2114818;28;19977;-50
2022/01/07 03:21:38;;;;;;;;;;;;;;;;;;2114084;28;20022;-48
2022/01/07 03:22:39;;;;;;;;;;;;;;;;;;2109146;28;19920;-49
2022/01/07 03:23:40;;;;;;;;;;;;;;;;;;2115254;28;20323;-49
2022/01/07 03:24:41;;;;;;;;;;;;;;;;;;2114515;28;20382;-51
2022/01/07 03:25:42;;;;;;;;;;;;;;;;;;2109703;28;21015;-52
2022/01/07 03:26:43;;;;;;;;;;;;;;;;;;2115148;28;19923;-49
2022/01/07 03:27:43;;;;;;;;;;;;;;;;;;2111066;28;19924;-49
2022/01/07 03:28:46;;;;;;;;;;;;;;;;;;2101662;28;20277;-49
2022/01/07 03:29:46;;;;;;;;;;;;;;;;;;2098348;28;20053;-48
2022/01/07 03:30:47;;;;;;;;;;;;;;;;;;2099589;28;20323;-49
2022/01/07 03:31:48;;;;;;;;;;;;;;;;;;2113146;28;19920;-49
2022/01/07 03:32:49;;;;;;;;;;;;;;;;;;2115209;28;20303;-48
2022/01/07 03:33:50;;;;;;;;;;;;;;;;;;2108327;28;19973;-50
2022/01/07 03:34:50;;;;;;;;;;;;;;;;;;2106446;28;19926;-49
2022/01/07 03:35:51;;;;;;;;;;;;;;;;;;2106556;28;19920;-50
2022/01/07 03:36:52;;;;;;;;;;;;;;;;;;2107992;28;19927;-49
2022/01/07 03:37:53;;;;;;;;;;;;;;;;;;2114838;28;19920;-49
2022/01/07 03:38:54;;;;;;;;;;;;;;;;;;2113644;28;19930;-49
2022/01/07 03:39:55;;;;;;;;;;;;;;;;;;2103801;28;19989;-49
2022/01/07 03:40:56;;;;;;;;;;;;;;;;;;2106555;28;19930;-49
2022/01/07 03:41:56;;;;;;;;;;;;;;;;;;2104388;28;19920;-48
2022/01/07 03:42:57;;;;;;;;;;;;;;;;;;2110821;28;19926;-49
2022/01/07 03:43:58;;;;;;;;;;;;;;;;;;2115108;28;19942;-49
2022/01/07 03:44:59;;;;;;;;;;;;;;;;;;2110006;28;19924;-49
2022/01/07 03:46:00;;;;;;;;;;;;;;;;;;2114276;28;19942;-49
2022/01/07 03:47:01;;;;;;;;;;;;;;;;;;2114866;28;20288;-48
2022/01/07 03:48:02;;;;;;;;;;;;;;;;;;2106780;28;19928;-49
2022/01/07 03:49:02;;;;;;;;;;;;;;;;;;2098076;28;19920;-49
2022/01/07 03:50:03;;;;;;;;;;;;;;;;;;2098296;28;20122;-51
2022/01/07 03:51:04;;;;;;;;;;;;;;;;;;2102041;28;19935;-49
2022/01/07 03:52:05;;;;;;;;;;;;;;;;;;2106489;28;19923;-49
2022/01/07 03:53:06;;;;;;;;;;;;;;;;;;2106233;28;19920;-49
2022/01/07 03:54:06;;;;;;;;;;;;;;;;;;2104931;28;20116;-50
2022/01/07 03:55:07;;;;;;;;;;;;;;;;;;2106596;28;19920;-49
2022/01/07 03:56:11;;;;;;;;;;;;;;;;;;2104343;28;19924;-49
2022/01/07 03:57:12;;;;;;;;;;;;;;;;;;2101501;28;20266;-49
2022/01/07 03:58:13;;;;;;;;;;;;;;;;;;2098111;28;19920;-49
2022/01/07 03:59:14;;;;;;;;;;;;;;;;;;2101140;28;20281;-50
2022/01/07 04:00:15;;;;;;;;;;;;;;;;;;2097983;28;19920;-50
2022/01/07 04:01:16;;;;;;;;;;;;;;;;;;2097652;28;20389;-48
2022/01/07 04:02:17;;;;;;;;;;;;;;;;;;2105217;28;19928;-50
2022/01/07 04:03:18;;;;;;;;;;;;;;;;;;2098240;28;19920;-49
2022/01/07 04:04:19;;;;;;;;;;;;;;;;;;2099470;28;20277;-49
2022/01/07 04:05:22;;;;;;;;;;;;;;;;;;2111560;28;20318;-49
2022/01/07 04:06:23;;;;;;;;;;;;;;;;;;2114945;28;19972;-50
2022/01/07 04:07:24;;;;;;;;;;;;;;;;;;2112111;28;20277;-49
2022/01/07 04:08:25;;;;;;;;;;;;;;;;;;2099959;28;19924;-49
2022/01/07 04:09:25;;;;;;;;;;;;;;;;;;2098102;28;19928;-49
2022/01/07 04:10:26;;;;;;;;;;;;;;;;;;2102788;28;19973;-49
2022/01/07 04:11:27;;;;;;;;;;;;;;;;;;2097936;28;19921;-48
2022/01/07 04:12:30;;;;;;;;;;;;;;;;;;2098014;28;19943;-50
2022/01/07 04:13:30;;;;;;;;;;;;;;;;;;2103780;28;19920;-51
2022/01/07 04:14:31;;;;;;;;;;;;;;;;;;2097980;28;19927;-51
2022/01/07 04:15:32;;;;;;;;;;;;;;;;;;2097566;28;19974;-49
2022/01/07 04:16:33;;;;;;;;;;;;;;;;;;2104896;28;19920;-50
2022/01/07 04:17:34;;;;;;;;;;;;;;;;;;2098139;28;19924;-49
2022/01/07 04:18:35;;;;;;;;;;;;;;;;;;2100109;28;19928;-49
2022/01/07 04:19:35;;;;;;;;;;;;;;;;;;2102317;28;19921;-49
2022/01/07 04:20:37;;;;;;;;;;;;;;;;;;2097912;28;20301;-49
2022/01/07 04:21:37;;;;;;;;;;;;;;;;;;2100264;28;19920;-49
2022/01/07 04:22:38;;;;;;;;;;;;;;;;;;2099000;28;19970;-52
2022/01/07 04:23:39;;;;;;;;;;;;;;;;;;2098115;28;19920;-48
2022/01/07 04:24:40;;;;;;;;;;;;;;;;;;2101283;28;20530;-50
2022/01/07 04:25:41;;;;;;;;;;;;;;;;;;2097902;28;19921;-50
2022/01/07 04:26:42;;;;;;;;;;;;;;;;;;2097965;28;19943;-50
2022/01/07 04:27:42;;;;;;;;;;;;;;;;;;2101278;28;19928;-53
2022/01/07 04:28:43;;;;;;;;;;;;;;;;;;2098027;28;19924;-50
2022/01/07 04:29:44;;;;;;;;;;;;;;;;;;2098790;28;19924;-49
2022/01/07 04:30:45;;;;;;;;;;;;;;;;;;2108924;28;19926;-48
2022/01/07 04:31:46;;;;;;;;;;;;;;;;;;2114684;28;19972;-52
2022/01/07 04:32:48;;;;;;;;;;;;;;;;;;2111334;28;19920;-48
2022/01/07 04:33:49;;;;;;;;;;;;;;;;;;2113418;28;20015;-48
2022/01/07 04:34:49;;;;;;;;;;;;;;;;;;2116284;28;20398;-49
2022/01/07 04:35:50;;;;;;;;;;;;;;;;;;2108890;28;19920;-50
2022/01/07 04:36:51;;;;;;;;;;;;;;;;;;2099888;28;20297;-51
2022/01/07 04:37:52;;;;;;;;;;;;;;;;;;2099355;28;20393;-48
2022/01/07 04:38:53;;;;;;;;;;;;;;;;;;2104971;28;19938;-49
2022/01/07 04:39:54;;;;;;;;;;;;;;;;;;2107679;28;19931;-48
2022/01/07 04:40:54;;;;;;;;;;;;;;;;;;2107522;28;19927;-53
2022/01/07 04:41:59;;;;;;;;;;;;;;;;;;2105759;28;20320;-48
2022/01/07 04:43:00;;;;;;;;;;;;;;;;;;2107801;28;19924;-48
2022/01/07 04:44:00;;;;;;;;;;;;;;;;;;2107805;28;19927;-48
2022/01/07 04:45:01;;;;;;;;;;;;;;;;;;2104698;28;19924;-50
2022/01/07 04:46:04;;;;;;;;;;;;;;;;;;2099306;28;19920;-51
2022/01/07 04:47:04;;;;;;;;;;;;;;;;;;2102188;28;19928;-49
2022/01/07 04:48:05;;;;;;;;;;;;;;;;;;2114938;28;19927;-49
2022/01/07 04:49:06;;;;;;;;;;;;;;;;;;2116319;28;19919;-48
2022/01/07 04:50:07;;;;;;;;;;;;;;;;;;2107642;28;20361;-49
2022/01/07 04:51:08;;;;;;;;;;;;;;;;;;2099265;28;19955;-53
2022/01/07 04:52:09;;;;;;;;;;;;;;;;;;2099356;28;19920;-50
2022/01/07 04:53:09;;;;;;;;;;;;;;;;;;2105920;28;19989;-48
2022/01/07 04:54:10;;;;;;;;;;;;;;;;;;2107788;28;19942;-48
2022/01/07 04:55:11;;;;;;;;;;;;;;;;;;2107107;28;19920;-50
2022/01/07 04:56:12;;;;;;;;;;;;;;;;;;2101386;28;20362;-49
2022/01/07 04:57:13;;;;;;;;;;;;;;;;;;2099330;28;19920;-48
2022/01/07 04:58:16;;;;;;;;;;;;;;;;;;2103521;28;19955;-49
2022/01/07 04:59:17;;;;;;;;;;;;;;;;;;2107531;28;19927;-48
2022/01/07 05:00:18;;;;;;;;;;;;;;;;;;2107558;28;19920;-49
2022/01/07 05:01:18;;;;;;;;;;;;;;;;;;2107450;28;19919;-49
2022/01/07 05:02:20;;;;;;;;;;;;;;;;;;2099374;28;19928;-48
2022/01/07 05:03:21;;;;;;;;;;;;;;;;;;2098984;28;19927;-49
2022/01/07 05:04:22;;;;;;;;;;;;;;;;;;2108943;28;19926;-49
2022/01/07 05:05:22;;;;;;;;;;;;;;;;;;2116075;28;19920;-49
2022/01/07 05:06:44;;;;;;;;;;;;;;;;;;2111796;28;20314;-48
2022/01/07 05:07:45;;;;;;;;;;;;;;;;;;2106746;28;20018;-48
2022/01/07 05:08:45;;;;;;;;;;;;;;;;;;2107687;28;20288;-48
2022/01/07 05:09:46;;;;;;;;;;;;;;;;;;2106453;28;19986;-49
2022/01/07 05:10:47;;;;;;;;;;;;;;;;;;2107574;28;19932;-50
2022/01/07 05:11:48;;;;;;;;;;;;;;;;;;2107599;28;19939;-48
2022/01/07 05:12:48;;;;;;;;;;;;;;;;;;2109312;28;19920;-49
2022/01/07 05:13:49;;;;;;;;;;;;;;;;;;2116055;28;19920;-52
2022/01/07 05:14:50;;;;;;;;;;;;;;;;;;2113727;28;20322;-49
2022/01/07 05:15:51;;;;;;;;;;;;;;;;;;2106799;28;19920;-48
2022/01/07 05:16:52;;;;;;;;;;;;;;;;;;2107399;28;19939;-48
2022/01/07 05:17:53;;;;;;;;;;;;;;;;;;2107876;28;19927;-48
2022/01/07 05:18:54;;;;;;;;;;;;;;;;;;2106137;28;20408;-50
2022/01/07 05:19:55;;;;;;;;;;;;;;;;;;2107535;28;19920;-51
2022/01/07 05:20:56;;;;;;;;;;;;;;;;;;2108475;28;19919;-49
2022/01/07 05:21:56;;;;;;;;;;;;;;;;;;2099480;28;19921;-48
2022/01/07 05:22:57;;;;;;;;;;;;;;;;;;2099206;28;19920;-49
2022/01/07 05:23:58;;;;;;;;;;;;;;;;;;2103806;28;19919;-49
2022/01/07 05:24:59;;;;;;;;;;;;;;;;;;2099063;28;19920;-50
2022/01/07 05:25:59;;;;;;;;;;;;;;;;;;2098579;28;19928;-50
2022/01/07 05:27:00;;;;;;;;;;;;;;;;;;2102789;28;19971;-50
2022/01/07 05:28:01;;;;;;;;;;;;;;;;;;2099150;28;19920;-51
2022/01/07 05:29:02;;;;;;;;;;;;;;;;;;2100288;28;19920;-52
2022/01/07 05:30:03;;;;;;;;;;;;;;;;;;2102492;28;19937;-49
2022/01/07 05:31:04;;;;;;;;;;;;;;;;;;2099042;28;19924;-50
2022/01/07 05:32:05;;;;;;;;;;;;;;;;;;2102102;28;20334;-51
2022/01/07 05:33:06;;;;;;;;;;;;;;;;;;2107121;28;19920;-49
2022/01/07 05:34:06;;;;;;;;;;;;;;;;;;2107511;28;19920;-50
2022/01/07 05:35:07;;;;;;;;;;;;;;;;;;2106400;28;20285;-48
2022/01/07 05:36:08;;;;;;;;;;;;;;;;;;2107230;28;19927;-48
2022/01/07 05:37:10;;;;;;;;;;;;;;;;;;2107332;28;19924;-50
2022/01/07 05:38:10;;;;;;;;;;;;;;;;;;2106179;28;20285;-50
2022/01/07 05:39:11;;;;;;;;;;;;;;;;;;2107421;28;19920;-48
2022/01/07 05:40:12;;;;;;;;;;;;;;;;;;2106729;28;19920;-50
2022/01/07 05:41:13;;;;;;;;;;;;;;;;;;2105565;28;19924;-49
2022/01/07 05:42:14;;;;;;;;;;;;;;;;;;2107297;28;19924;-48
2022/01/07 05:43:15;;;;;;;;;;;;;;;;;;2106723;28;19955;-48
2022/01/07 05:44:15;;;;;;;;;;;;;;;;;;2105377;28;19935;-49
2022/01/07 05:45:16;;;;;;;;;;;;;;;;;;2107237;28;20411;-48
2022/01/07 05:46:17;;;;;;;;;;;;;;;;;;2104582;28;19920;-48
2022/01/07 05:47:18;;;;;;;;;;;;;;;;;;2114319;28;19920;-47
2022/01/07 05:48:19;;;;;;;;;;;;;;;;;;2115716;28;20291;-50
2022/01/07 05:49:20;;;;;;;;;;;;;;;;;;2106593;28;20362;-48
2022/01/07 05:50:21;;;;;;;;;;;;;;;;;;2115713;28;20285;-49
2022/01/07 05:51:22;;;;;;;;;;;;;;;;;;2113290;28;19963;-49
2022/01/07 05:52:23;;;;;;;;;;;;;;;;;;2106544;28;19934;-48
2022/01/07 05:53:24;;;;;;;;;;;;;;;;;;2115666;28;19924;-48
2022/01/07 05:54:25;;;;;;;;;;;;;;;;;;2114521;28;20403;-48
2022/01/07 05:55:26;;;;;;;;;;;;;;;;;;2109955;28;20254;-48
2022/01/07 05:56:26;;;;;;;;;;;;;;;;;;2115650;28;19972;-48
2022/01/07 05:57:28;;;;;;;;;;;;;;;;;;2110958;28;19920;-50
2022/01/07 05:58:28;;;;;;;;;;;;;;;;;;2101758;28;19921;-48
2022/01/07 05:59:29;;;;;;;;;;;;;;;;;;2098816;28;19927;-48
2022/01/07 06:00:30;;;;;;;;;;;;;;;;;;2102722;28;19923;-48
2022/01/07 06:01:31;;;;;;;;;;;;;;;;;;2106944;28;19920;-50
2022/01/07 06:02:32;;;;;;;;;;;;;;;;;;2107195;28;20336;-48
2022/01/07 06:03:33;;;;;;;;;;;;;;;;;;2109259;28;19923;-48
2022/01/07 06:04:34;;;;;;;;;;;;;;;;;;2098774;28;20011;-49
2022/01/07 06:05:35;;;;;;;;;;;;;;;;;;2098926;28;19966;-49
2022/01/07 06:06:35;;;;;;;;;;;;;;;;;;2106170;28;20342;-48
2022/01/07 06:07:36;;;;;;;;;;;;;;;;;;2115612;28;20338;-50
2022/01/07 06:08:37;;;;;;;;;;;;;;;;;;2113961;28;19927;-51
2022/01/07 06:09:38;;;;;;;;;;;;;;;;;;2102758;28;20048;-48
2022/01/07 06:10:40;;;;;;;;;;;;;;;;;;2098775;28;20369;-48
2022/01/07 06:11:40;;;;;;;;;;;;;;;;;;2099825;28;19920;-49
2022/01/07 06:12:41;;;;;;;;;;;;;;;;;;2101279;28;20496;-48
2022/01/07 06:13:42;;;;;;;;;;;;;;;;;;2098706;28;19982;-50
2022/01/07 06:14:43;;;;;;;;;;;;;;;;;;2102640;28;19927;-51
2022/01/07 06:15:43;;;;;;;;;;;;;;;;;;2107005;28;19924;-49
2022/01/07 06:16:44;;;;;;;;;;;;;;;;;;2107020;28;19931;-52
2022/01/07 06:17:45;;;;;;;;;;;;;;;;;;2106529;28;19928;-48
2022/01/07 06:18:51;;;;;;;;;;;;;;;;;;2115635;28;19920;-51
2022/01/07 06:19:52;;;;;;;;;;;;;;;;;;2114114;28;19926;-49
2022/01/07 06:20:53;;;;;;;;;;;;;;;;;;2108829;28;20367;-50
2022/01/07 06:21:54;;;;;;;;;;;;;;;;;;2115447;28;19968;-48
2022/01/07 06:22:55;;;;;;;;;;;;;;;;;;2111275;28;19920;-50
2022/01/07 06:23:55;;;;;;;;;;;;;;;;;;2101881;28;20267;-51
2022/01/07 06:24:56;;;;;;;;;;;;;;;;;;2098937;28;19920;-47
2022/01/07 06:25:57;;;;;;;;;;;;;;;;;;2100016;28;19920;-46
2022/01/07 06:26:58;;;;;;;;;;;;;;;;;;2113862;28;19926;-47
2022/01/07 06:27:59;;;;;;;;;;;;;;;;;;2115460;28;19930;-45
2022/01/07 06:29:00;;;;;;;;;;;;;;;;;;2108508;28;19924;-46
2022/01/07 06:30:01;;;;;;;;;;;;;;;;;;2115566;28;19919;-47
2022/01/07 06:31:02;;;;;;;;;;;;;;;;;;2115484;28;19949;-46
2022/01/07 06:32:02;;;;;;;;;;;;;;;;;;2106742;28;19936;-45
2022/01/07 06:33:03;;;;;;;;;;;;;;;;;;2107324;28;19920;-49
2022/01/07 06:34:04;;;;;;;;;;;;;;;;;;2105972;28;20369;-49
2022/01/07 06:35:05;;;;;;;;;;;;;;;;;;2109279;28;20369;-50
2022/01/07 06:36:06;;;;;;;;;;;;;;;;;;2115374;28;19963;-49
2022/01/07 06:37:07;;;;;;;;;;;;;;;;;;2112246;28;19925;-52
2022/01/07 06:38:07;;;;;;;;;;;;;;;;;;2111923;28;19924;-48
2022/01/07 06:39:08;;;;;;;;;;;;;;;;;;2115447;28;19919;-47
2022/01/07 06:40:09;;;;;;;;;;;;;;;;;;2108202;28;19928;-48
2022/01/07 06:41:10;;;;;;;;;;;;;;;;;;2114336;28;19919;-48
2022/01/07 06:42:11;;;;;;;;;;;;;;;;;;2115445;28;19919;-48
2022/01/07 06:43:12;;;;;;;;;;;;;;;;;;2107086;28;20048;-49
2022/01/07 06:44:13;;;;;;;;;;;;;;;;;;2115414;28;19920;-48
2022/01/07 06:45:13;;;;;;;;;;;;;;;;;;2115217;28;19920;-48
2022/01/07 06:46:14;;;;;;;;;;;;;;;;;;2108288;28;19924;-48
2022/01/07 06:47:18;;;;;;;;;;;;;;;;;;2115568;28;19920;-50
2022/01/07 06:48:19;;;;;;;;;;;;;;;;;;2106579;28;19920;-48
2022/01/07 06:49:20;;;;;;;;;;;;;;;;;;2106298;28;19927;-48
2022/01/07 06:50:21;;;;;;;;;;;;;;;;;;2107040;28;19920;-48
2022/01/07 06:51:21;;;;;;;;;;;;;;;;;;2104932;28;20299;-49
2022/01/07 06:52:22;;;;;;;;;;;;;;;;;;2113417;28;19981;-48
2022/01/07 06:53:23;;;;;;;;;;;;;;;;;;2115304;28;20005;-47
2022/01/07 06:54:31;;;;;;;;;;;;;;;;;;2108585;28;20432;-48
2022/01/07 06:55:32;;;;;;;;;;;;;;;;;;2107093;28;20273;-49
2022/01/07 06:56:33;;;;;;;;;;;;;;;;;;2106773;28;19927;-47